Time;durP1;ratioP1;P1;durP2;ratioP2;P2;SDS_P1;SDS_P2;PMS_P1;PMS_P2;Temp;Humidity;BMP_temperature;BMP_pressure;BME280_temperature;BME280_humidity;BME280_pressure;Samples;Min_cycle;Max_cycle;Signal;HPM_P1;HPM_P2
2024/02/24 00:07:28;;;;;;;8.2;3.5;;;;;;;8.07;82.49;97208.333333333;;;;
2024/02/24 00:17:28;;;;;;;8.2;3.5;;;;;;;8.21;81.97;97206.666666667;;;;
2024/02/24 00:27:28;;;;;;;6.6;3.3;;;;;;;8.09;82.81;97168.333333333;;;;
2024/02/24 00:38:28;;;;;;;6.6;3.3;;;;;;;8.29;82.16;97166.666666667;;;;
2024/02/24 00:49:29;;;;;;;6.6;3.3;;;;;;;8.62;81.36;97171.666666667;;;;
2024/02/24 01:00:28;;;;;;;5.7;2.7;;;;;;;8.39;81.37;97158.333333333;;;;
2024/02/24 01:10:28;;;;;;;5.7;2.7;;;;;;;8.32;81.83;97161.666666667;;;;
2024/02/24 01:21:28;;;;;;;5.7;2.7;;;;;;;8.39;81.68;97150;;;;
2024/02/24 01:31:28;;;;;;;7.4;3.5;;;;;;;8.29;81.97;97136.666666667;;;;
2024/02/24 01:42:28;;;;;;;7.4;3.5;;;;;;;8.16;82.24;97135;;;;
2024/02/24 01:53:28;;;;;;;7.4;3.5;;;;;;;8.09;81.88;97150;;;;
2024/02/24 02:03:28;;;;;;;7.4;2.8;;;;;;;7.98;81.54;97138.333333333;;;;
2024/02/24 02:13:28;;;;;;;7.4;2.8;;;;;;;8.28;81.36;97141.666666667;;;;
2024/02/24 02:24:28;;;;;;;7.4;2.8;;;;;;;9.02;79.13;97113.333333333;;;;
2024/02/24 02:34:28;;;;;;;5.6;2.7;;;;;;;9.34;77.3;97105;;;;
2024/02/24 02:45:28;;;;;;;5.6;2.7;;;;;;;9.65;75.71;97076.666666667;;;;
2024/02/24 02:56:28;;;;;;;4.7;2.5;;;;;;;9.76;74.95;97048.333333333;;;;
2024/02/24 03:07:28;;;;;;;4.7;2.5;;;;;;;9.81;75.19;97020;;;;
2024/02/24 03:18:28;;;;;;;4.7;2.5;;;;;;;9.95;74.16;97031.666666667;;;;
2024/02/24 03:29:28;;;;;;;5.8;3.5;;;;;;;9.97;74.53;97075;;;;
2024/02/24 03:40:28;;;;;;;5.8;3.5;;;;;;;9.86;74.82;97110;;;;
2024/02/24 03:51:28;;;;;;;5.8;3.5;;;;;;;9.88;73.88;97103.333333333;;;;
2024/02/24 04:01:28;;;;;;;6.3;3.1;;;;;;;9.84;74.33;97106.666666667;;;;
2024/02/24 04:11:28;;;;;;;6.3;3.1;;;;;;;9.69;74.12;97115;;;;
2024/02/24 04:22:28;;;;;;;6.3;3.1;;;;;;;9.82;72.49;97116.666666667;;;;
2024/02/24 04:32:28;;;;;;;5.6;3.3;;;;;;;10.35;70.65;97140;;;;
2024/02/24 04:42:28;;;;;;;5.6;3.3;;;;;;;10.48;69.84;97165;;;;
2024/02/24 04:53:28;;;;;;;5.6;3.3;;;;;;;10.71;68.29;97188.333333333;;;;
2024/02/24 05:04:28;;;;;;;3.2;1.5;;;;;;;10.58;68.67;97203.333333333;;;;
2024/02/24 05:14:28;;;;;;;3.2;1.5;;;;;;;10.5;69.45;97210;;;;
2024/02/24 05:25:30;;;;;;;3;1.5;;;;;;;10.42;69.08;97230;;;;
2024/02/24 05:35:28;;;;;;;3;1.5;;;;;;;10.37;69.86;97250;;;;
2024/02/24 05:46:28;;;;;;;3;1.5;;;;;;;10.43;69.56;97258.333333333;;;;
2024/02/24 05:57:28;;;;;;;4;1.6;;;;;;;10.38;70.91;97241.666666667;;;;
2024/02/24 06:07:28;;;;;;;4;1.6;;;;;;;10.58;70.18;97233.333333333;;;;
2024/02/24 06:18:30;;;;;;;4;1.6;;;;;;;10.74;70.49;97225;;;;
2024/02/24 06:29:28;;;;;;;3.2;1.5;;;;;;;10.95;68.98;97238.333333333;;;;
2024/02/24 06:40:28;;;;;;;3.2;1.5;;;;;;;11.02;68.04;97258.333333333;;;;
2024/02/24 06:51:28;;;;;;;3.2;1.5;;;;;;;11;67.61;97295;;;;
2024/02/24 07:02:28;;;;;;;2.5;1.5;;;;;;;11.14;66.97;97315;;;;
2024/02/24 07:13:28;;;;;;;2.5;1.5;;;;;;;11.31;66.62;97338.333333333;;;;
2024/02/24 07:23:28;;;;;;;2.5;1.5;;;;;;;11.51;66.3;97361.666666667;;;;
2024/02/24 07:34:28;;;;;;;3.2;1.4;;;;;;;11.66;67.43;97346.666666667;;;;
2024/02/24 07:44:28;;;;;;;3.2;1.4;;;;;;;11.91;66.3;97383.333333333;;;;
2024/02/24 07:54:28;;;;;;;3.2;1.4;;;;;;;12.11;66.39;97405;;;;
2024/02/24 08:05:28;;;;;;;2.4;1.2;;;;;;;10.4;74.16;97478.333333333;;;;
2024/02/24 08:15:28;;;;;;;;;;;;;;;;;97513.333333333;;;;
2024/02/24 08:26:28;;;;;;;4.8;3;;;;;;;8.28;81.33;97543.333333333;;;;
2024/02/24 08:36:28;;;;;;;4.8;3;;;;;;;8.45;81.03;97568.333333333;;;;
2024/02/24 08:47:28;;;;;;;;;;;;;;;;;97575;;;;
2024/02/24 08:57:28;;;;;;;;;;;;;;;;;97578.333333333;;;;
2024/02/24 09:08:29;;;;;;;;;;;;;;;;;97590;;;;
2024/02/24 09:19:28;;;;;;;;;;;;;;;;;97625;;;;
2024/02/24 09:30:28;;;;;;;5.4;3.9;;;;;;;9.07;78.46;97646.666666667;;;;
2024/02/24 09:40:28;;;;;;;5.4;3.9;;;;;;;9.19;76.57;97660;;;;
2024/02/24 09:51:28;;;;;;;5.4;3.9;;;;;;;9.14;74.31;97670;;;;
2024/02/24 10:02:28;;;;;;;5.3;3;;;;;;;9.47;73.86;97693.333333333;;;;
2024/02/24 10:13:29;;;;;;;5.3;3;;;;;;;9.59;72.17;97710;;;;
2024/02/24 10:23:28;;;;;;;5.3;3;;;;;;;9.8;72.12;97710;;;;
2024/02/24 10:34:28;;;;;;;3.5;1.3;;;;;;;9.54;72.6;97736.666666667;;;;
2024/02/24 10:45:29;;;;;;;3.5;1.3;;;;;;;9.66;72.88;97750;;;;
2024/02/24 10:56:28;;;;;;;4.1;2.2;;;;;;;9.51;73.05;97741.666666667;;;;
2024/02/24 11:06:28;;;;;;;4.1;2.2;;;;;;;9.13;72.06;97761.666666667;;;;
2024/02/24 11:17:28;;;;;;;4.1;2.2;;;;;;;9.67;73.1;97775;;;;
2024/02/24 11:27:29;;;;;;;4.4;2.4;;;;;;;9.91;72.23;97786.666666667;;;;
2024/02/24 11:37:28;;;;;;;4.4;2.4;;;;;;;9.37;73.34;97800;;;;
2024/02/24 11:47:28;;;;;;;4.4;2.4;;;;;;;9.34;74.19;97803.333333333;;;;
2024/02/24 11:57:28;;;;;;;5.2;3;;;;;;;9.83;73.71;97813.333333333;;;;
2024/02/24 12:08:28;;;;;;;5.2;3;;;;;;;10.22;72.44;97820;;;;
2024/02/24 12:18:28;;;;;;;5.2;3;;;;;;;10.58;71.42;97825;;;;
2024/02/24 12:29:29;;;;;;;6;3.4;;;;;;;10.92;71;97840;;;;
2024/02/24 12:40:28;;;;;;;6;3.4;;;;;;;11.47;69.44;97858.333333333;;;;
2024/02/24 12:50:28;;;;;;;6;3.4;;;;;;;11.46;68.98;97866.666666667;;;;
2024/02/24 13:00:28;;;;;;;6.3;4.3;;;;;;;11.39;68.29;97866.666666667;;;;
2024/02/24 13:11:28;;;;;;;6.3;4.3;;;;;;;11.38;68.46;97886.666666667;;;;
2024/02/24 13:21:28;;;;;;;6.3;4.3;;;;;;;11.57;68.36;97895;;;;
2024/02/24 13:32:28;;;;;;;6.6;3.8;;;;;;;11.35;68.97;97891.666666667;;;;
2024/02/24 13:43:28;;;;;;;6.6;3.8;;;;;;;11.6;69.55;97895;;;;
2024/02/24 13:53:28;;;;;;;6.6;3.8;;;;;;;11.78;68.03;97905;;;;
2024/02/24 14:03:28;;;;;;;6.2;4.4;;;;;;;11.75;68.04;97905;;;;
2024/02/24 14:13:28;;;;;;;6.2;4.4;;;;;;;11.97;67.07;97915;;;;
2024/02/24 14:24:28;;;;;;;6.2;4.4;;;;;;;11.99;67.36;97941.666666667;;;;
2024/02/24 14:34:28;;;;;;;7;3.6;;;;;;;11.95;67.14;97945;;;;
2024/02/24 14:45:30;;;;;;;7;3.6;;;;;;;11.58;68.32;97958.333333333;;;;
2024/02/24 14:56:28;;;;;;;7.5;4.1;;;;;;;11.59;68.32;97971.666666667;;;;
2024/02/24 15:06:28;;;;;;;7.5;4.1;;;;;;;11.27;68.83;97981.666666667;;;;
2024/02/24 15:16:28;;;;;;;7.5;4.1;;;;;;;11.17;69.02;97996.666666667;;;;
2024/02/24 15:26:32;;;;;;;7.9;4.7;;;;;;;11.15;69.25;98015;;;;
2024/02/24 15:37:28;;;;;;;7.9;4.7;;;;;;;10.88;68.95;98023.333333333;;;;
2024/02/24 15:48:28;;;;;;;7.9;4.7;;;;;;;10.47;69.39;98036.666666667;;;;
2024/02/24 15:58:28;;;;;;;8.3;5.2;;;;;;;9.98;71.28;98048.333333333;;;;
2024/02/24 16:08:30;;;;;;;8.3;5.2;;;;;;;9.5;71.39;98060;;;;
2024/02/24 16:18:28;;;;;;;8.3;5.2;;;;;;;8.95;74.07;98076.666666667;;;;
2024/02/24 16:28:28;;;;;;;20.1;11.3;;;;;;;8.63;74.83;98093.333333333;;;;
2024/02/24 16:38:28;;;;;;;20.1;11.3;;;;;;;8.24;76.33;98106.666666667;;;;
2024/02/24 16:49:30;;;;;;;20.1;11.3;;;;;;;7.96;78.21;98115;;;;
2024/02/24 16:59:28;;;;;;;12.5;9.7;;;;;;;7.69;77.84;98133.333333333;;;;
2024/02/24 17:09:28;;;;;;;12.5;9.7;;;;;;;7.46;77.73;98136.666666667;;;;
2024/02/24 17:19:29;;;;;;;12.5;9.7;;;;;;;7.19;77.54;98153.333333333;;;;
2024/02/24 17:30:28;;;;;;;15.7;9.4;;;;;;;6.98;81.22;98170;;;;
2024/02/24 17:40:28;;;;;;;15.7;9.4;;;;;;;6.87;80.53;98188.333333333;;;;
2024/02/24 17:50:28;;;;;;;15.7;9.4;;;;;;;6.85;80.77;98183.333333333;;;;
2024/02/24 18:01:28;;;;;;;24.9;14.1;;;;;;;6.68;80.77;98178.333333333;;;;
2024/02/24 18:12:35;;;;;;;24.9;14.1;;;;;;;6.61;80.73;98183.333333333;;;;
2024/02/24 18:22:28;;;;;;;24.9;14.1;;;;;;;6.47;79.8;98191.666666667;;;;
2024/02/24 18:33:28;;;;;;;27.7;15.6;;;;;;;6.4;80.06;98186.666666667;;;;
2024/02/24 18:44:28;;;;;;;27.7;15.6;;;;;;;6.38;79.92;98196.666666667;;;;
2024/02/24 18:55:29;;;;;;;66.9;36.9;;;;;;;6.29;80.91;98206.666666667;;;;
2024/02/24 19:06:29;;;;;;;66.9;36.9;;;;;;;6.28;80.49;98211.666666667;;;;
2024/02/24 19:16:28;;;;;;;66.9;36.9;;;;;;;6.22;80.83;98196.666666667;;;;
2024/02/24 19:27:28;;;;;;;29.9;17.2;;;;;;;6.2;81.09;98200;;;;
2024/02/24 19:37:29;;;;;;;29.9;17.2;;;;;;;6.05;81.18;98208.333333333;;;;
2024/02/24 19:48:28;;;;;;;29.9;17.2;;;;;;;5.79;82.19;98211.666666667;;;;
2024/02/24 19:59:28;;;;;;;35.4;19.7;;;;;;;5.68;84.07;98201.666666667;;;;
2024/02/24 20:10:28;;;;;;;35.4;19.7;;;;;;;5.72;83.39;98201.666666667;;;;
2024/02/24 20:21:28;;;;;;;35.4;19.7;;;;;;;5.52;84.7;98218.333333333;;;;
2024/02/24 20:31:29;;;;;;;28.2;16.3;;;;;;;5.59;85.48;98216.666666667;;;;
2024/02/24 20:42:28;;;;;;;28.2;16.3;;;;;;;5.62;84.58;98221.666666667;;;;
2024/02/24 20:52:28;;;;;;;28.2;16.3;;;;;;;5.63;84.62;98340;;;;
2024/02/24 21:02:28;;;;;;;21.5;13.8;;;;;;;5.52;85.19;98215;;;;
2024/02/24 21:12:29;;;;;;;21.5;13.8;;;;;;;5.43;85.25;98218.333333333;;;;
2024/02/24 21:23:28;;;;;;;21.5;13.8;;;;;;;5.35;85.35;98210;;;;
2024/02/24 21:34:30;;;;;;;30.2;16.6;;;;;;;5.31;86.31;98195;;;;
2024/02/24 21:45:29;;;;;;;30.2;16.6;;;;;;;5.28;86.86;98201.666666667;;;;
2024/02/24 21:55:29;;;;;;;23.7;15.3;;;;;;;5.38;88.05;98198.333333333;;;;
2024/02/24 22:06:29;;;;;;;23.7;15.3;;;;;;;5.46;88.18;98190;;;;
2024/02/24 22:16:29;;;;;;;23.7;15.3;;;;;;;5.44;87.55;98186.666666667;;;;
2024/02/24 22:27:29;;;;;;;24.5;15.1;;;;;;;5.34;87.34;98186.666666667;;;;
2024/02/24 22:38:29;;;;;;;24.5;15.1;;;;;;;5.24;87.15;98188.333333333;;;;
2024/02/24 22:49:29;;;;;;;24.5;15.1;;;;;;;5.13;87.42;98183.333333333;;;;
2024/02/24 23:00:29;;;;;;;25.7;16.9;;;;;;;4.95;86.35;98220;;;;
2024/02/24 23:10:29;;;;;;;25.7;16.9;;;;;;;4.87;86.76;98210;;;;
2024/02/24 23:21:30;;;;;;;25.7;16.9;;;;;;;4.67;86.82;98195;;;;
2024/02/24 23:31:29;;;;;;;24.3;15.2;;;;;;;4.5;87.11;98190;;;;
2024/02/24 23:42:29;;;;;;;24.3;15.2;;;;;;;4.48;87.23;98181.666666667;;;;
2024/02/24 23:52:29;;;;;;;24.3;15.2;;;;;;;4.34;86.82;98180;;;;
